Time;durP1;ratioP1;P1;durP2;ratioP2;P2;SDS_P1;SDS_P2;PMS_P1;PMS_P2;Temp;Humidity;BMP_temperature;BMP_pressure;BME280_temperature;BME280_humidity;BME280_pressure;Samples;Min_cycle;Max_cycle;Signal;HPM_P1;HPM_P2
2021/07/15 00:01:10;;;;;;;1.40;1.30;;;27.70;83.40;;;;;;5144557;27;20523;-26
2021/07/15 00:03:44;;;;;;;3.03;1.47;;;27.80;83.40;;;;;;5145157;27;20462;-25
2021/07/15 00:06:39;;;;;;;1.17;1.10;;;27.90;83.50;;;;;;5145162;27;20983;-24
2021/07/15 00:09:13;;;;;;;5.60;1.30;;;27.90;83.10;;;;;;5144672;27;20510;-23
2021/07/15 00:11:46;;;;;;;1.30;1.20;;;27.90;82.20;;;;;;5145433;27;20435;-27
2021/07/15 00:14:22;;;;;;;1.30;1.27;;;27.80;83.60;;;;;;5144588;27;20470;-24
2021/07/15 00:16:57;;;;;;;1.40;1.30;;;27.70;83.70;;;;;;5145119;27;20476;-26
2021/07/15 00:19:30;;;;;;;2.10;2.00;;;27.70;83.30;;;;;;5144431;27;20444;-24
2021/07/15 00:22:03;;;;;;;1.50;1.40;;;27.70;83.30;;;;;;5144438;27;20573;-23
2021/07/15 00:24:36;;;;;;;2.23;1.33;;;27.70;82.90;;;;;;5144900;27;20435;-25
2021/07/15 00:27:07;;;;;;;1.63;1.20;;;27.70;83.40;;;;;;5145096;27;20434;-28
2021/07/15 00:29:38;;;;;;;1.47;1.30;;;27.60;83.80;;;;;;5144007;27;20457;-23
2021/07/15 00:32:09;;;;;;;1.23;1.23;;;27.50;82.80;;;;;;5144757;27;20458;-25
2021/07/15 00:34:40;;;;;;;1.23;1.07;;;27.30;83.40;;;;;;5144675;27;20483;-25
2021/07/15 00:37:13;;;;;;;2.00;1.30;;;27.20;83.90;;;;;;5144200;27;20517;-26
2021/07/15 00:39:44;;;;;;;1.70;1.60;;;27.20;84.00;;;;;;5144294;27;20513;-29
2021/07/15 00:42:15;;;;;;;1.50;1.40;;;27.20;85.70;;;;;;5144639;27;20482;-26
2021/07/15 00:44:46;;;;;;;1.63;1.00;;;27.30;84.10;;;;;;5143988;27;20546;-28
2021/07/15 00:47:22;;;;;;;4.70;1.27;;;27.10;84.70;;;;;;5144230;27;20470;-27
2021/07/15 00:49:53;;;;;;;2.20;1.60;;;27.00;84.80;;;;;;5144113;27;20499;-30
2021/07/15 00:52:26;;;;;;;1.70;1.60;;;27.00;85.60;;;;;;5144105;27;20458;-27
2021/07/15 00:54:57;;;;;;;1.63;1.53;;;26.80;86.40;;;;;;5144688;27;20418;-30
2021/07/15 00:57:29;;;;;;;1.87;1.33;;;26.90;85.90;;;;;;5144507;27;20438;-25
2021/07/15 01:00:05;;;;;;;1.70;1.60;;;26.80;85.50;;;;;;5144406;27;20455;-25
2021/07/15 01:02:39;;;;;;;2.60;1.60;;;26.80;85.80;;;;;;5144460;27;20514;-28
2021/07/15 01:05:12;;;;;;;2.30;1.60;;;26.80;86.00;;;;;;5144393;27;20445;-27
2021/07/15 01:07:45;;;;;;;1.87;1.40;;;26.70;86.50;;;;;;5143735;27;20822;-26
2021/07/15 01:10:18;;;;;;;1.63;1.53;;;26.70;87.60;;;;;;5144171;27;20552;-26
2021/07/15 01:13:05;;;;;;;1.80;1.70;;;26.70;86.40;;;;;;5143191;27;20441;-26
2021/07/15 01:15:47;;;;;;;3.20;1.70;;;26.70;86.40;;;;;;5144856;27;20421;-27
2021/07/15 01:18:30;;;;;;;2.83;1.70;;;26.60;87.20;;;;;;5144196;27;20480;-26
2021/07/15 01:21:37;;;;;;;1.50;1.40;;;26.60;87.20;;;;;;5143079;27;20552;-25
2021/07/15 01:24:33;;;;;;;1.70;1.60;;;26.60;86.30;;;;;;5134220;28;20449;-25
2021/07/15 01:27:41;;;;;;;1.50;1.40;;;26.50;86.40;;;;;;5144157;27;20481;-25
2021/07/15 01:30:15;;;;;;;3.00;1.40;;;26.30;86.90;;;;;;5129157;27;20441;-26
2021/07/15 01:32:56;;;;;;;1.50;1.40;;;26.20;87.30;;;;;;5144217;27;20517;-25
2021/07/15 01:35:30;;;;;;;2.13;1.93;;;26.10;87.10;;;;;;5144246;27;20500;-26
2021/07/15 01:38:04;;;;;;;1.40;1.30;;;26.00;88.40;;;;;;5143702;27;20455;-24
2021/07/15 01:40:47;;;;;;;1.57;1.47;;;26.00;88.20;;;;;;5143834;27;20927;-26
2021/07/15 01:43:22;;;;;;;1.60;1.50;;;25.90;87.60;;;;;;5143964;27;20470;-25
2021/07/15 01:45:55;;;;;;;1.90;1.70;;;25.90;88.80;;;;;;5144130;27;20464;-27
2021/07/15 01:48:29;;;;;;;1.90;1.80;;;25.80;88.60;;;;;;5143782;27;20419;-28
2021/07/15 01:51:03;;;;;;;1.50;1.40;;;25.60;89.00;;;;;;5143197;27;20483;-24
2021/07/15 01:53:37;;;;;;;1.53;1.43;;;25.70;89.60;;;;;;5143919;27;20452;-24
2021/07/15 01:56:12;;;;;;;1.77;1.67;;;25.60;90.00;;;;;;5144121;28;20414;-25
2021/07/15 01:58:45;;;;;;;1.83;1.73;;;25.60;89.30;;;;;;5143465;27;20772;-27
2021/07/15 02:01:20;;;;;;;1.33;1.23;;;25.50;89.10;;;;;;5144094;27;20476;-24
2021/07/15 02:03:53;;;;;;;3.00;1.60;;;25.40;89.80;;;;;;5143853;27;20436;-26
2021/07/15 02:06:30;;;;;;;2.23;1.57;;;25.30;90.00;;;;;;5143288;27;20887;-26
2021/07/15 02:09:07;;;;;;;1.93;1.60;;;25.30;90.20;;;;;;5143857;27;20520;-29
2021/07/15 02:11:39;;;;;;;1.63;1.53;;;25.10;90.40;;;;;;5143158;27;20525;-26
2021/07/15 02:14:12;;;;;;;1.70;1.60;;;25.10;90.30;;;;;;5143476;27;20506;-26
2021/07/15 02:16:47;;;;;;;2.33;2.10;;;25.10;90.30;;;;;;5144047;28;20429;-28
2021/07/15 02:19:21;;;;;;;1.50;1.40;;;25.00;90.60;;;;;;5143706;27;20456;-23
2021/07/15 02:21:53;;;;;;;1.43;1.33;;;24.90;90.90;;;;;;5142785;27;20476;-27
2021/07/15 02:24:27;;;;;;;1.70;1.60;;;24.80;91.00;;;;;;5145129;27;20415;-29
2021/07/15 02:26:59;;;;;;;2.53;1.50;;;24.70;91.30;;;;;;5147378;27;20444;-24
2021/07/15 02:29:32;;;;;;;2.00;1.60;;;24.70;90.90;;;;;;5147130;27;20497;-25
2021/07/15 02:32:08;;;;;;;2.40;1.50;;;24.60;91.50;;;;;;5147383;27;20540;-24
2021/07/15 02:34:47;;;;;;;1.60;1.50;;;24.40;91.90;;;;;;5147963;27;20455;-28
2021/07/15 02:37:21;;;;;;;2.33;1.50;;;24.40;91.70;;;;;;5146940;27;20535;-26
2021/07/15 02:39:52;;;;;;;1.63;1.33;;;24.30;91.80;;;;;;5147548;27;20456;-26
2021/07/15 02:42:23;;;;;;;2.17;1.60;;;24.20;92.10;;;;;;5145258;27;20497;-26
2021/07/15 02:44:58;;;;;;;1.60;1.50;;;24.10;92.20;;;;;;5144325;27;20475;-25
2021/07/15 02:47:32;;;;;;;1.53;1.40;;;24.00;92.30;;;;;;5146497;27;20431;-25
2021/07/15 02:50:04;;;;;;;1.80;1.67;;;23.90;93.10;;;;;;5145966;27;20452;-25
2021/07/15 02:52:35;;;;;;;2.03;1.90;;;23.80;92.90;;;;;;5145249;27;20469;-26
2021/07/15 02:55:07;;;;;;;2.17;1.63;;;23.80;93.20;;;;;;5153362;27;20587;-24
2021/07/15 02:57:48;;;;;;;1.43;1.33;;;23.70;93.40;;;;;;5145659;27;20536;-24
2021/07/15 03:00:20;;;;;;;1.87;1.77;;;23.50;93.80;;;;;;5146711;27;20444;-28
2021/07/15 03:02:58;;;;;;;2.27;1.70;;;23.40;94.10;;;;;;5145651;27;20477;-28
2021/07/15 03:05:35;;;;;;;1.70;1.60;;;23.30;94.20;;;;;;5143998;27;20483;-25
2021/07/15 03:08:09;;;;;;;1.63;1.40;;;23.10;94.80;;;;;;5142006;27;20448;-25
2021/07/15 03:10:42;;;;;;;2.83;1.57;;;23.00;94.90;;;;;;5145665;27;20431;-27
2021/07/15 03:13:15;;;;;;;1.60;1.50;;;22.90;95.40;;;;;;5144997;27;20466;-24
2021/07/15 03:15:46;;;;;;;1.90;1.80;;;22.80;95.60;;;;;;5146532;27;20420;-25
2021/07/15 03:18:21;;;;;;;1.77;1.63;;;22.70;96.00;;;;;;5143362;27;20545;-25
2021/07/15 03:20:53;;;;;;;1.90;1.80;;;22.60;96.20;;;;;;5141074;27;20515;-26
2021/07/15 03:23:27;;;;;;;2.10;1.90;;;22.60;96.30;;;;;;5145432;27;20483;-26
2021/07/15 03:26:00;;;;;;;1.93;1.83;;;22.50;96.60;;;;;;5145252;27;20557;-25
2021/07/15 03:28:34;;;;;;;3.67;1.70;;;22.30;96.90;;;;;;5144686;27;20441;-25
2021/07/15 03:31:07;;;;;;;2.20;1.60;;;22.20;97.20;;;;;;5143862;27;20424;-26
2021/07/15 03:33:41;;;;;;;2.10;1.97;;;22.10;97.50;;;;;;5144159;27;20420;-27
2021/07/15 03:36:13;;;;;;;2.93;1.90;;;22.00;97.90;;;;;;5143704;27;20474;-24
2021/07/15 03:38:48;;;;;;;2.20;2.00;;;21.80;98.30;;;;;;5144209;27;20406;-25
2021/07/15 03:41:19;;;;;;;1.87;1.77;;;21.70;98.60;;;;;;5143357;27;20523;-27
2021/07/15 03:43:51;;;;;;;3.10;2.40;;;21.50;99.00;;;;;;5145106;27;20622;-24
2021/07/15 03:46:23;;;;;;;2.00;1.90;;;21.40;99.40;;;;;;5145423;27;20451;-27
2021/07/15 03:48:57;;;;;;;2.90;1.90;;;21.30;99.80;;;;;;5136019;27;20518;-29
2021/07/15 03:51:29;;;;;;;3.43;1.83;;;21.20;99.90;;;;;;5143712;27;20449;-26
2021/07/15 03:54:05;;;;;;;1.90;1.80;;;21.20;99.90;;;;;;5130897;27;20411;-24
2021/07/15 03:56:38;;;;;;;2.33;1.63;;;21.10;99.90;;;;;;5137150;27;20493;-24
2021/07/15 03:59:09;;;;;;;3.30;2.00;;;21.00;99.90;;;;;;5142117;27;20445;-25
2021/07/15 04:01:42;;;;;;;3.50;2.30;;;20.80;99.90;;;;;;5136995;27;20484;-26
2021/07/15 04:04:15;;;;;;;2.73;2.53;;;20.60;99.90;;;;;;5135385;27;20514;-23
2021/07/15 04:06:47;;;;;;;3.10;2.20;;;20.50;99.90;;;;;;5141319;27;20440;-27
2021/07/15 04:09:18;;;;;;;2.53;2.13;;;20.40;99.90;;;;;;5145547;27;20501;-22
2021/07/15 04:11:50;;;;;;;2.33;2.13;;;20.40;99.90;;;;;;5144676;27;20476;-23
2021/07/15 04:14:37;;;;;;;2.07;1.90;;;20.20;99.90;;;;;;5144059;27;20420;-26
2021/07/15 04:17:10;;;;;;;2.10;1.67;;;20.10;99.90;;;;;;5144781;27;20433;-29
2021/07/15 04:19:44;;;;;;;2.00;1.80;;;20.00;99.90;;;;;;5139131;27;20431;-27
2021/07/15 04:22:15;;;;;;;2.33;2.13;;;19.90;99.90;;;;;;5143421;27;20576;-28
2021/07/15 04:24:49;;;;;;;2.97;2.30;;;19.80;99.90;;;;;;5144698;27;20476;-26
2021/07/15 04:27:20;;;;;;;3.17;2.40;;;19.80;99.90;;;;;;5143608;27;20460;-30
2021/07/15 04:29:52;;;;;;;2.53;2.33;;;19.70;99.90;;;;;;5143650;27;20430;-25
2021/07/15 04:32:27;;;;;;;2.20;1.97;;;19.60;99.90;;;;;;5143969;27;20448;-27
2021/07/15 04:35:01;;;;;;;2.80;2.27;;;19.60;99.90;;;;;;5144214;27;20452;-27
2021/07/15 04:37:33;;;;;;;2.20;2.00;;;19.40;99.90;;;;;;5143685;27;20504;-27
2021/07/15 04:40:05;;;;;;;2.27;2.07;;;19.30;99.90;;;;;;5140792;27;20870;-24
2021/07/15 04:42:41;;;;;;;2.87;1.87;;;19.30;99.90;;;;;;5142937;27;21869;-25
2021/07/15 04:45:14;;;;;;;2.33;1.73;;;19.30;99.90;;;;;;5141189;27;20448;-25
2021/07/15 04:47:48;;;;;;;3.23;2.00;;;19.20;99.90;;;;;;5142119;27;20862;-25
2021/07/15 04:50:24;;;;;;;2.00;1.90;;;19.10;99.90;;;;;;5143452;27;20479;-22
2021/07/15 04:52:58;;;;;;;2.70;2.50;;;19.00;99.90;;;;;;5142281;27;20491;-26
2021/07/15 04:55:31;;;;;;;2.63;2.30;;;18.80;99.90;;;;;;5151821;27;20491;-25
2021/07/15 04:58:03;;;;;;;2.20;2.00;;;18.80;99.90;;;;;;5142952;27;20440;-24
2021/07/15 05:00:35;;;;;;;2.50;2.30;;;18.70;99.90;;;;;;5144191;27;20449;-28
2021/07/15 05:03:24;;;;;;;3.27;2.60;;;18.60;99.90;;;;;;5142800;27;20479;-31
2021/07/15 05:05:57;;;;;;;4.40;2.40;;;18.60;99.90;;;;;;5143218;27;20455;-23
2021/07/15 05:08:28;;;;;;;2.93;2.00;;;18.50;99.90;;;;;;5143154;27;20445;-23
2021/07/15 05:11:00;;;;;;;2.63;1.97;;;18.40;99.90;;;;;;5142693;27;20976;-27
2021/07/15 05:13:31;;;;;;;3.10;2.13;;;18.30;99.90;;;;;;5139784;27;21061;-26
2021/07/15 05:16:02;;;;;;;1.97;1.87;;;18.20;99.90;;;;;;5143765;27;20451;-25
2021/07/15 05:18:38;;;;;;;4.30;2.33;;;18.20;99.90;;;;;;5143404;27;20461;-25
2021/07/15 05:21:11;;;;;;;2.90;2.37;;;18.10;99.90;;;;;;5143395;27;20448;-23
2021/07/15 05:23:42;;;;;;;2.67;1.70;;;18.00;99.90;;;;;;5143143;27;20512;-27
2021/07/15 05:26:13;;;;;;;2.27;2.07;;;17.90;99.90;;;;;;5143265;27;20489;-27
2021/07/15 05:28:44;;;;;;;2.30;2.10;;;17.80;99.90;;;;;;5142779;28;20452;-24
2021/07/15 05:31:15;;;;;;;2.40;2.20;;;17.60;99.90;;;;;;5144459;28;20441;-27
2021/07/15 05:33:46;;;;;;;2.17;1.97;;;17.50;99.90;;;;;;5141575;28;20437;-27
2021/07/15 05:36:21;;;;;;;2.00;1.87;;;17.40;99.90;;;;;;5135538;28;20475;-24
2021/07/15 05:38:52;;;;;;;2.50;1.70;;;17.30;99.90;;;;;;5143265;27;20472;-24
2021/07/15 05:41:23;;;;;;;3.07;2.60;;;17.20;99.90;;;;;;5142874;27;20441;-23
2021/07/15 05:43:54;;;;;;;4.03;2.10;;;17.20;99.90;;;;;;5142181;27;21194;-27
2021/07/15 05:46:25;;;;;;;3.60;2.10;;;17.10;99.90;;;;;;5131789;28;20468;-25
2021/07/15 05:48:57;;;;;;;2.73;2.10;;;17.00;99.90;;;;;;5142473;27;20470;-27
2021/07/15 05:51:31;;;;;;;4.00;2.47;;;16.90;99.90;;;;;;5143274;27;20464;-23
2021/07/15 05:54:01;;;;;;;5.30;2.40;;;16.90;99.90;;;;;;5142192;27;20453;-24
2021/07/15 05:56:35;;;;;;;3.97;2.73;;;16.90;99.90;;;;;;5143269;27;20461;-26
2021/07/15 05:59:09;;;;;;;2.30;2.00;;;16.90;99.90;;;;;;5142151;27;20437;-23
2021/07/15 06:01:40;;;;;;;2.57;2.37;;;16.70;99.90;;;;;;5147925;27;20492;-22
2021/07/15 06:04:11;;;;;;;4.50;2.37;;;16.70;99.90;;;;;;5147002;27;20478;-24
2021/07/15 06:06:44;;;;;;;3.20;2.37;;;16.60;99.90;;;;;;5146766;27;20483;-23
2021/07/15 06:09:15;;;;;;;2.93;2.13;;;16.40;99.90;;;;;;5146162;27;20448;-24
2021/07/15 06:11:46;;;;;;;2.30;2.10;;;16.40;99.90;;;;;;5146525;27;20449;-24
2021/07/15 06:14:16;;;;;;;3.27;2.27;;;16.30;99.90;;;;;;5145892;27;20433;-25
2021/07/15 06:16:52;;;;;;;2.60;2.40;;;16.30;99.90;;;;;;5148093;27;20783;-25
2021/07/15 06:19:23;;;;;;;3.70;2.50;;;16.20;99.90;;;;;;5146672;27;20444;-24
2021/07/15 06:21:56;;;;;;;2.23;2.03;;;16.20;99.90;;;;;;5146666;27;20437;-24
2021/07/15 06:24:27;;;;;;;2.90;2.27;;;16.20;99.90;;;;;;5147002;27;20544;-25
2021/07/15 06:26:58;;;;;;;4.10;3.20;;;16.10;99.90;;;;;;5146421;27;20951;-23
2021/07/15 06:29:29;;;;;;;5.60;3.13;;;16.10;99.90;;;;;;5146806;27;20437;-23
2021/07/15 06:32:00;;;;;;;3.30;2.33;;;16.10;99.90;;;;;;5146589;27;20441;-26
2021/07/15 06:34:34;;;;;;;3.73;2.50;;;16.10;99.90;;;;;;5146661;27;20799;-24
2021/07/15 06:37:09;;;;;;;2.97;2.67;;;16.00;99.90;;;;;;5145294;27;20457;-28
2021/07/15 06:39:40;;;;;;;3.00;2.70;;;15.90;99.90;;;;;;5143914;27;20528;-24
2021/07/15 06:42:11;;;;;;;3.50;2.83;;;15.90;99.90;;;;;;5143829;27;20448;-23
2021/07/15 06:44:42;;;;;;;2.90;2.70;;;15.80;99.90;;;;;;5142807;27;20541;-24
2021/07/15 06:47:17;;;;;;;3.57;2.77;;;15.80;99.90;;;;;;5146240;27;20483;-23
2021/07/15 06:49:48;;;;;;;3.50;2.80;;;15.80;99.90;;;;;;5146132;27;20445;-25
2021/07/15 06:52:22;;;;;;;3.20;2.90;;;15.80;99.90;;;;;;5146293;27;20445;-24
2021/07/15 06:54:57;;;;;;;3.03;2.73;;;15.80;99.90;;;;;;5146229;27;20463;-26
2021/07/15 06:57:31;;;;;;;2.97;2.67;;;15.70;99.90;;;;;;5145634;27;20516;-25
2021/07/15 07:00:02;;;;;;;4.20;2.70;;;15.70;99.90;;;;;;5146194;27;20447;-25
2021/07/15 07:02:33;;;;;;;4.93;2.97;;;15.70;99.90;;;;;;5145959;27;20510;-24
2021/07/15 07:05:04;;;;;;;2.80;2.60;;;15.60;99.90;;;;;;5145809;27;20943;-23
2021/07/15 07:07:37;;;;;;;3.50;3.20;;;15.70;99.90;;;;;;5144675;27;20485;-27
2021/07/15 07:10:09;;;;;;;3.00;2.53;;;15.80;99.90;;;;;;5145186;27;20789;-23
2021/07/15 07:12:43;;;;;;;3.43;3.13;;;15.90;99.90;;;;;;5143720;27;20436;-24
2021/07/15 07:15:16;;;;;;;4.80;3.20;;;15.90;99.90;;;;;;5142214;27;20823;-27
2021/07/15 07:17:47;;;;;;;3.70;2.70;;;16.00;99.90;;;;;;5135369;27;20460;-27
2021/07/15 07:20:21;;;;;;;4.13;3.00;;;16.00;99.90;;;;;;5146237;27;20511;-23
2021/07/15 07:22:54;;;;;;;3.27;2.60;;;16.00;99.90;;;;;;5144884;27;20445;-26
2021/07/15 07:25:25;;;;;;;3.70;3.13;;;16.10;99.90;;;;;;5145235;27;20476;-23
2021/07/15 07:27:58;;;;;;;4.00;3.70;;;16.10;99.90;;;;;;5144392;27;20441;-23
2021/07/15 07:30:29;;;;;;;4.93;2.80;;;16.10;99.90;;;;;;5144690;27;20472;-23
2021/07/15 07:33:03;;;;;;;3.83;3.40;;;16.10;99.90;;;;;;5145279;27;20469;-28
2021/07/15 07:35:34;;;;;;;4.23;3.20;;;16.10;99.90;;;;;;5144376;27;20476;-23
2021/07/15 07:38:07;;;;;;;3.27;2.97;;;16.10;99.90;;;;;;5144546;27;20485;-23
2021/07/15 07:40:39;;;;;;;4.10;3.70;;;16.10;99.90;;;;;;5144764;27;20437;-25
2021/07/15 07:43:12;;;;;;;4.80;3.70;;;16.00;99.90;;;;;;5133683;27;20495;-25
2021/07/15 07:45:44;;;;;;;3.40;3.03;;;15.90;99.90;;;;;;5144662;27;20770;-27
2021/07/15 07:48:15;;;;;;;3.40;2.73;;;15.90;99.90;;;;;;5144549;27;20436;-24
2021/07/15 07:50:48;;;;;;;4.80;3.40;;;16.00;99.90;;;;;;5145279;27;20457;-23
2021/07/15 07:53:21;;;;;;;3.40;3.10;;;16.10;99.90;;;;;;5145284;27;20444;-23
2021/07/15 07:56:11;;;;;;;4.03;3.63;;;16.10;99.90;;;;;;5144641;27;20456;-25
2021/07/15 07:58:45;;;;;;;3.70;3.03;;;16.10;99.90;;;;;;5141557;27;20460;-26
2021/07/15 08:01:16;;;;;;;3.30;3.00;;;16.10;99.90;;;;;;5145157;27;20469;-25
2021/07/15 08:03:48;;;;;;;3.87;3.47;;;16.20;99.90;;;;;;5144739;27;20466;-24
2021/07/15 08:06:21;;;;;;;3.53;2.77;;;16.30;99.90;;;;;;5143847;27;20502;-25
2021/07/15 08:08:54;;;;;;;4.43;3.00;;;16.30;99.90;;;;;;5143803;27;20590;-27
2021/07/15 08:11:25;;;;;;;3.63;3.10;;;16.20;99.90;;;;;;5144064;27;20524;-22
2021/07/15 08:13:56;;;;;;;3.60;3.20;;;16.20;99.90;;;;;;5144584;27;20441;-25
2021/07/15 08:16:27;;;;;;;3.37;3.07;;;16.10;99.90;;;;;;5143970;27;20593;-25
2021/07/15 08:18:59;;;;;;;4.10;3.30;;;16.10;99.90;;;;;;5144543;27;20429;-27
2021/07/15 08:21:30;;;;;;;3.50;2.43;;;16.00;99.90;;;;;;5128933;27;20473;-23
2021/07/15 08:24:04;;;;;;;3.00;2.50;;;16.00;99.90;;;;;;5134620;27;20445;-24
2021/07/15 08:26:36;;;;;;;4.10;2.77;;;16.00;99.90;;;;;;5136462;27;20785;-28
2021/07/15 08:29:09;;;;;;;3.40;3.10;;;16.00;99.90;;;;;;5143352;27;20470;-25
2021/07/15 08:31:42;;;;;;;3.73;3.37;;;16.00;99.90;;;;;;5143594;27;20537;-25
2021/07/15 08:34:14;;;;;;;2.90;2.60;;;15.90;99.90;;;;;;5144341;27;20448;-24
2021/07/15 08:36:45;;;;;;;3.30;3.00;;;15.80;99.90;;;;;;5143282;27;20452;-24
2021/07/15 08:39:17;;;;;;;3.50;2.80;;;15.80;99.90;;;;;;5143948;27;20485;-25
2021/07/15 08:41:52;;;;;;;3.03;2.83;;;15.70;99.90;;;;;;5143335;27;20453;-25
2021/07/15 08:44:25;;;;;;;4.50;2.60;;;15.80;99.90;;;;;;5143814;27;20480;-23
2021/07/15 08:46:57;;;;;;;3.80;3.03;;;15.90;99.90;;;;;;5142932;27;20495;-25
2021/07/15 08:49:29;;;;;;;3.50;2.93;;;15.90;99.90;;;;;;5143751;27;20433;-23
2021/07/15 08:52:00;;;;;;;3.30;3.00;;;15.80;99.90;;;;;;5143859;27;20426;-24
2021/07/15 08:54:47;;;;;;;4.70;2.80;;;15.80;99.90;;;;;;5144172;27;20459;-23
2021/07/15 08:57:17;;;;;;;4.07;2.87;;;15.80;99.90;;;;;;5142910;27;20444;-23
2021/07/15 08:59:48;;;;;;;5.03;2.70;;;15.80;99.90;;;;;;5142779;27;20469;-24
2021/07/15 09:02:22;;;;;;;3.07;2.77;;;15.70;99.90;;;;;;5134996;27;20441;-23
2021/07/15 09:04:56;;;;;;;2.50;2.37;;;15.70;99.90;;;;;;5144492;27;20528;-23
2021/07/15 09:07:28;;;;;;;4.40;3.10;;;15.70;99.90;;;;;;5143296;27;20441;-23
2021/07/15 09:10:01;;;;;;;2.97;2.53;;;15.80;99.90;;;;;;5143603;27;20922;-23
2021/07/15 09:12:32;;;;;;;2.90;2.57;;;15.90;99.90;;;;;;5142450;27;20469;-23
2021/07/15 09:15:11;;;;;;;5.23;2.73;;;15.70;99.90;;;;;;5143243;27;20449;-23
2021/07/15 09:17:42;;;;;;;2.93;2.60;;;15.70;99.90;;;;;;5142985;27;20472;-24
2021/07/15 09:20:21;;;;;;;3.53;3.23;;;15.70;99.90;;;;;;5142705;27;20476;-24
2021/07/15 09:23:00;;;;;;;3.47;2.90;;;15.70;99.90;;;;;;5143599;27;20487;-29
2021/07/15 09:26:00;;;;;;;4.33;3.10;;;15.80;99.90;;;;;;5143950;27;20487;-25
2021/07/15 09:28:33;;;;;;;3.37;2.60;;;15.80;99.90;;;;;;5142143;28;20555;-23
2021/07/15 09:31:19;;;;;;;3.00;2.70;;;15.80;99.90;;;;;;5143973;27;20449;-25
2021/07/15 09:33:50;;;;;;;5.00;3.03;;;15.70;99.90;;;;;;5143307;27;20481;-24
2021/07/15 09:36:24;;;;;;;3.27;2.70;;;15.70;99.90;;;;;;5147354;27;20479;-24
2021/07/15 09:38:55;;;;;;;4.00;3.17;;;15.70;99.90;;;;;;5147831;27;20464;-24
2021/07/15 09:41:27;;;;;;;3.10;2.70;;;15.70;99.90;;;;;;5147942;27;20514;-24
2021/07/15 09:44:03;;;;;;;4.20;3.00;;;15.70;99.90;;;;;;5147731;27;20751;-26
2021/07/15 09:46:38;;;;;;;3.50;3.20;;;15.70;99.90;;;;;;5147257;27;20484;-22
2021/07/15 09:49:09;;;;;;;3.80;3.40;;;15.70;99.90;;;;;;5147079;27;20515;-24
2021/07/15 09:51:45;;;;;;;3.33;3.00;;;15.70;99.90;;;;;;5147490;27;20441;-23
2021/07/15 09:54:18;;;;;;;3.87;2.80;;;15.70;99.90;;;;;;5147629;27;20449;-24
2021/07/15 09:56:51;;;;;;;2.63;2.43;;;15.60;99.90;;;;;;5147306;27;20440;-25
2021/07/15 09:59:23;;;;;;;3.67;3.07;;;15.60;99.90;;;;;;5140702;27;20556;-25
2021/07/15 10:01:55;;;;;;;4.70;2.80;;;15.70;99.90;;;;;;5147871;27;20463;-23
2021/07/15 10:04:33;;;;;;;2.33;2.13;;;15.60;99.90;;;;;;5146174;27;20430;-23
2021/07/15 10:07:05;;;;;;;3.17;2.27;;;15.60;99.90;;;;;;5146735;27;20490;-25
2021/07/15 10:09:36;;;;;;;3.57;2.63;;;15.70;99.90;;;;;;5147457;27;20525;-27
2021/07/15 10:12:26;;;;;;;2.47;2.27;;;15.70;99.90;;;;;;5147112;27;20531;-22
2021/07/15 10:15:10;;;;;;;4.70;2.70;;;15.70;99.90;;;;;;5147840;27;20466;-23
2021/07/15 10:17:42;;;;;;;2.93;2.73;;;15.70;99.90;;;;;;5146299;27;20483;-26
2021/07/15 10:20:14;;;;;;;3.20;2.53;;;15.60;99.90;;;;;;5147165;27;20449;-24
2021/07/15 10:22:45;;;;;;;2.93;2.73;;;15.60;99.90;;;;;;5143938;27;20877;-23
2021/07/15 10:25:19;;;;;;;4.63;2.30;;;15.60;99.90;;;;;;5147361;27;20468;-28
2021/07/15 10:27:53;;;;;;;3.20;2.90;;;15.60;99.90;;;;;;5145812;27;20488;-24
2021/07/15 10:30:24;;;;;;;3.30;2.53;;;15.60;99.90;;;;;;5147181;27;20462;-23
2021/07/15 10:33:03;;;;;;;3.57;2.90;;;15.60;99.90;;;;;;5146307;27;20460;-23
2021/07/15 10:35:37;;;;;;;3.80;3.50;;;15.50;99.90;;;;;;5140182;27;20455;-23
2021/07/15 10:38:28;;;;;;;2.50;2.30;;;15.50;99.90;;;;;;5146364;27;20806;-25
2021/07/15 10:41:04;;;;;;;2.23;2.03;;;15.50;99.90;;;;;;5140551;27;20527;-25
2021/07/15 10:43:37;;;;;;;4.20;2.90;;;15.50;99.90;;;;;;5145256;27;20448;-24
2021/07/15 10:46:10;;;;;;;2.93;2.63;;;15.50;99.90;;;;;;5146339;27;20516;-24
2021/07/15 10:48:41;;;;;;;2.97;2.73;;;15.50;99.90;;;;;;5145331;27;20449;-26
2021/07/15 10:51:12;;;;;;;3.10;2.50;;;15.50;99.90;;;;;;5146031;27;20451;-23
2021/07/15 10:53:43;;;;;;;4.03;2.80;;;15.40;99.90;;;;;;5145886;27;20448;-22
2021/07/15 10:56:24;;;;;;;4.00;2.60;;;15.50;99.90;;;;;;5145595;27;20448;-23
2021/07/15 10:58:59;;;;;;;3.03;2.83;;;15.50;99.90;;;;;;5144998;27;20455;-24
2021/07/15 11:01:44;;;;;;;3.33;3.03;;;15.40;99.90;;;;;;5146157;27;20578;-24
2021/07/15 11:04:17;;;;;;;2.80;2.60;;;15.50;99.90;;;;;;5146256;27;20445;-23
2021/07/15 11:06:50;;;;;;;3.07;2.50;;;15.40;99.90;;;;;;5145770;27;20537;-23
2021/07/15 11:09:33;;;;;;;2.60;2.43;;;15.40;99.90;;;;;;5146361;27;20560;-26
2021/07/15 11:12:06;;;;;;;3.80;3.50;;;15.40;99.90;;;;;;5145826;27;20449;-23
2021/07/15 11:14:40;;;;;;;3.80;2.63;;;15.30;99.90;;;;;;5145313;27;20563;-22
2021/07/15 11:17:35;;;;;;;3.70;2.30;;;15.40;99.90;;;;;;5144278;27;20459;-22
2021/07/15 11:20:09;;;;;;;2.57;2.37;;;15.40;99.90;;;;;;5143272;27;20449;-24
2021/07/15 11:22:45;;;;;;;2.73;2.53;;;15.40;99.90;;;;;;5145925;27;20452;-26
2021/07/15 11:25:42;;;;;;;3.60;2.97;;;15.50;99.90;;;;;;5145608;27;20452;-26
2021/07/15 11:28:23;;;;;;;3.77;2.93;;;15.50;99.90;;;;;;5142252;27;20524;-22
2021/07/15 11:30:58;;;;;;;3.20;2.87;;;15.40;99.90;;;;;;5143580;27;20460;-28
2021/07/15 11:33:37;;;;;;;3.77;3.13;;;15.30;99.90;;;;;;5144381;27;20829;-25
2021/07/15 11:36:14;;;;;;;3.50;3.20;;;15.40;99.90;;;;;;5145229;27;20705;-23
2021/07/15 11:38:58;;;;;;;3.83;3.13;;;15.40;99.90;;;;;;5144607;27;20493;-23
2021/07/15 11:41:46;;;;;;;3.10;2.90;;;15.30;99.90;;;;;;5145171;27;20476;-23
2021/07/15 11:44:18;;;;;;;4.13;3.77;;;15.40;99.90;;;;;;5144867;27;20521;-24
2021/07/15 11:46:51;;;;;;;4.10;3.70;;;15.40;99.90;;;;;;5136123;27;20540;-24
2021/07/15 11:49:25;;;;;;;3.70;2.90;;;15.20;99.90;;;;;;5145105;27;20443;-23
2021/07/15 11:52:17;;;;;;;4.03;2.73;;;15.30;99.90;;;;;;5145435;27;20451;-23
2021/07/15 11:54:50;;;;;;;3.80;2.90;;;15.40;99.90;;;;;;5145441;27;20504;-26
2021/07/15 11:57:33;;;;;;;5.77;3.40;;;15.40;99.90;;;;;;5143825;27;20481;-23
2021/07/15 12:00:15;;;;;;;4.10;2.93;;;15.30;99.90;;;;;;5144146;27;20460;-23
2021/07/15 12:03:08;;;;;;;3.40;3.10;;;15.40;99.90;;;;;;5141296;27;20440;-22
2021/07/15 12:05:45;;;;;;;4.33;3.10;;;15.30;99.90;;;;;;5145453;27;20901;-26
2021/07/15 12:08:22;;;;;;;5.23;2.60;;;15.30;99.90;;;;;;5143239;27;20544;-23
2021/07/15 12:10:57;;;;;;;3.40;2.70;;;15.30;99.90;;;;;;5129621;27;20441;-24
2021/07/15 12:13:28;;;;;;;4.40;3.13;;;15.30;99.90;;;;;;5135760;27;20514;-24
2021/07/15 12:15:59;;;;;;;4.53;2.57;;;15.30;99.90;;;;;;5144609;27;20444;-25
2021/07/15 12:18:38;;;;;;;3.37;3.07;;;15.30;99.90;;;;;;5144155;27;20555;-23
2021/07/15 12:21:09;;;;;;;4.20;3.00;;;15.30;99.90;;;;;;5144403;27;21082;-27
2021/07/15 12:23:41;;;;;;;3.63;3.33;;;15.30;99.90;;;;;;5140040;27;20441;-23
2021/07/15 12:26:13;;;;;;;6.40;3.50;;;15.30;99.90;;;;;;5144634;27;20447;-23
2021/07/15 12:28:47;;;;;;;3.23;2.20;;;15.30;99.90;;;;;;5143687;27;20468;-22
2021/07/15 12:31:25;;;;;;;4.33;2.90;;;15.40;99.90;;;;;;5143749;27;20492;-25
2021/07/15 12:34:04;;;;;;;4.27;2.93;;;15.40;99.90;;;;;;5143884;27;20504;-24
2021/07/15 12:36:39;;;;;;;2.80;2.60;;;15.30;99.90;;;;;;5142032;27;20456;-22
2021/07/15 12:39:13;;;;;;;3.33;2.53;;;15.30;99.90;;;;;;5142939;27;20483;-22
2021/07/15 12:41:45;;;;;;;2.57;2.37;;;15.30;99.90;;;;;;5137945;27;20514;-23
2021/07/15 12:44:21;;;;;;;4.40;2.70;;;15.30;99.90;;;;;;5144092;27;20448;-22
2021/07/15 12:46:53;;;;;;;3.10;2.50;;;15.20;99.90;;;;;;5142918;27;20560;-23
2021/07/15 12:49:28;;;;;;;3.90;3.10;;;15.30;99.90;;;;;;5143441;27;20441;-22
2021/07/15 12:52:03;;;;;;;3.40;2.67;;;15.20;99.90;;;;;;5143326;27;20505;-22
2021/07/15 12:54:38;;;;;;;4.53;2.50;;;15.20;99.90;;;;;;5139334;27;20488;-22
2021/07/15 12:57:11;;;;;;;3.60;2.67;;;15.30;99.90;;;;;;5143500;27;20951;-27
2021/07/15 12:59:43;;;;;;;5.37;3.00;;;15.30;99.90;;;;;;5142959;27;20445;-23
2021/07/15 13:02:34;;;;;;;6.70;3.70;;;15.30;99.90;;;;;;5146901;27;20482;-22
2021/07/15 13:05:19;;;;;;;6.37;2.93;;;15.40;99.90;;;;;;5148677;27;20441;-22
2021/07/15 13:07:50;;;;;;;3.07;2.70;;;15.50;99.90;;;;;;5154045;27;20488;-22
2021/07/15 13:10:35;;;;;;;4.57;3.20;;;15.50;99.90;;;;;;5149703;27;20491;-25
2021/07/15 13:16:01;;;;;;;3.00;2.60;;;15.30;99.90;;;;;;5136729;27;20590;-23
2021/07/15 13:18:35;;;;;;;2.27;2.07;;;15.40;99.90;;;;;;5143599;27;20448;-23
2021/07/15 13:21:08;;;;;;;2.37;2.17;;;15.30;99.90;;;;;;5143104;27;20448;-23
2021/07/15 13:23:42;;;;;;;2.30;1.83;;;15.30;99.90;;;;;;5143643;27;20460;-23
2021/07/15 13:26:15;;;;;;;4.40;2.10;;;15.50;99.90;;;;;;5143615;27;20468;-22
2021/07/15 13:28:46;;;;;;;3.83;2.20;;;15.50;99.90;;;;;;5142508;27;20472;-23